createdAt,value
2018-04-18T00:01:55.700Z,4.10
2018-04-18T00:04:24.055Z,4.07
2018-04-18T00:06:51.594Z,3.90
2018-04-18T00:09:19.119Z,3.85
2018-04-18T00:11:46.594Z,3.70
2018-04-18T00:14:14.081Z,3.90
2018-04-18T00:16:42.375Z,3.83
2018-04-18T00:19:09.929Z,3.70
2018-04-18T00:21:37.412Z,3.50
2018-04-18T00:24:13.942Z,3.60
2018-04-18T00:26:41.482Z,3.85
2018-04-18T00:29:12.664Z,3.80
2018-04-18T00:31:40.215Z,3.78
2018-04-18T00:34:07.714Z,3.85
2018-04-18T00:36:35.201Z,3.80
2018-04-18T00:39:02.679Z,3.90
2018-04-18T00:41:30.197Z,3.85
2018-04-18T00:43:57.731Z,4.22
2018-04-18T00:46:25.233Z,4.28
2018-04-18T00:48:52.712Z,4.45
2018-04-18T00:51:30.020Z,4.18
2018-04-18T00:53:57.659Z,3.90
2018-04-18T00:56:25.182Z,4.10
2018-04-18T00:58:52.696Z,4.20
2018-04-18T01:01:20.966Z,4.22
2018-04-18T01:04:09.475Z,4.53
2018-04-18T01:06:36.967Z,4.47
2018-04-18T01:09:04.447Z,4.80
2018-04-18T01:11:37.883Z,4.80
2018-04-18T01:14:06.143Z,3.92
2018-04-18T01:16:44.364Z,3.80
2018-04-18T01:19:11.888Z,3.80
2018-04-18T01:21:39.390Z,3.90
2018-04-18T01:24:13.792Z,3.80
2018-04-18T01:26:41.296Z,3.78
2018-04-18T01:29:08.775Z,3.75
2018-04-18T01:31:43.099Z,3.80
2018-04-18T01:34:11.683Z,3.72
2018-04-18T01:36:39.285Z,3.97
2018-04-18T01:39:06.961Z,3.72
2018-04-18T01:41:35.238Z,3.70
2018-04-18T01:44:02.690Z,4.32
2018-04-18T01:46:30.190Z,3.72
2018-04-18T01:49:09.634Z,3.72
2018-04-18T01:51:43.108Z,3.90
2018-04-18T01:54:10.737Z,3.58
2018-04-18T01:56:39.004Z,3.80
2018-04-18T01:59:06.533Z,3.70
2018-04-18T02:04:32.874Z,3.72
2018-04-18T02:07:01.130Z,3.80
2018-04-18T02:09:28.651Z,4.10
2018-04-18T02:11:58.116Z,3.83
2018-04-18T02:14:25.663Z,3.60
2018-04-18T02:16:53.150Z,3.47
2018-04-18T02:19:20.636Z,3.65
2018-04-18T02:21:48.976Z,3.85
2018-04-18T02:24:20.223Z,3.85
2018-04-18T02:26:47.723Z,3.67
2018-04-18T02:29:15.210Z,3.65
2018-04-18T02:31:42.718Z,3.45
2018-04-18T02:37:09.847Z,3.70
2018-04-18T02:45:14.213Z,3.63
2018-04-18T02:47:42.674Z,3.55
2018-04-18T02:50:10.236Z,3.60
2018-04-18T02:52:37.780Z,3.70
2018-04-18T02:55:05.282Z,3.90
2018-04-18T02:57:32.861Z,3.50
2018-04-18T03:00:00.369Z,3.53
2018-04-18T03:02:28.004Z,3.85
2018-04-18T03:04:55.571Z,3.80
2018-04-18T03:07:23.058Z,3.95
2018-04-18T03:09:51.412Z,3.70
2018-04-18T03:12:18.889Z,3.65
2018-04-18T03:14:46.376Z,3.90
2018-04-18T03:17:13.902Z,4.00
2018-04-18T03:19:41.476Z,4.00
2018-04-18T03:22:09.789Z,3.80
2018-04-18T03:24:37.266Z,4.13
2018-04-18T03:27:05.013Z,4.00
2018-04-18T03:29:32.525Z,3.92
2018-04-18T03:32:00.009Z,3.83
2018-04-18T03:34:45.028Z,4.03
2018-04-18T03:37:14.148Z,4.10
2018-04-18T03:39:41.624Z,4.22
2018-04-18T03:42:09.116Z,4.10
2018-04-18T03:44:41.920Z,4.40
2018-04-18T03:47:09.451Z,4.50
2018-04-18T03:49:36.896Z,5.00
2018-04-18T03:52:04.403Z,4.90
2018-04-18T03:54:31.879Z,4.40
2018-04-18T03:56:59.387Z,4.37
2018-04-18T03:59:26.898Z,4.57
2018-04-18T04:02:07.945Z,5.28
2018-04-18T04:04:43.820Z,5.20
2018-04-18T04:07:12.375Z,4.50
2018-04-18T04:18:41.638Z,4.45
2018-04-18T04:27:11.901Z,4.80
2018-04-18T04:29:44.086Z,4.77
2018-04-18T04:32:12.588Z,5.05
2018-04-18T04:34:43.323Z,5.00
2018-04-18T04:37:13.970Z,4.90
2018-04-18T04:39:43.057Z,4.57
2018-04-18T04:42:12.490Z,5.03
2018-04-18T04:44:44.129Z,4.93
2018-04-18T04:47:12.769Z,5.25
2018-04-18T04:49:42.753Z,5.60
2018-04-18T04:55:13.389Z,5.28
2018-04-18T04:57:41.015Z,4.65
2018-04-18T05:00:08.516Z,4.80
2018-04-18T05:02:36.761Z,5.05
2018-04-18T05:05:12.644Z,5.25
2018-04-18T05:07:40.174Z,5.68
2018-04-18T05:10:08.639Z,5.70
2018-04-18T05:12:42.204Z,5.82
2018-04-18T05:15:13.202Z,5.55
2018-04-18T05:17:42.352Z,5.72
2018-04-18T05:20:12.592Z,6.20
2018-04-18T05:28:31.148Z,6.10
2018-04-18T05:33:53.479Z,5.72
2018-04-18T05:45:15.017Z,4.82
2018-04-18T05:47:42.558Z,4.78
2018-04-18T05:50:13.788Z,4.80
2018-04-18T05:52:43.061Z,4.55
2018-04-18T05:58:12.398Z,4.70
2018-04-18T06:00:43.766Z,5.00
2018-04-18T06:03:11.504Z,5.10
2018-04-18T06:08:42.934Z,4.75
2018-04-18T06:11:13.134Z,4.87
2018-04-18T06:13:41.271Z,4.60
2018-04-18T06:16:14.733Z,4.80
2018-04-18T06:18:43.248Z,4.62
2018-04-18T06:21:10.851Z,4.70
2018-04-18T06:23:38.441Z,4.97
2018-04-18T06:26:06.067Z,4.57
2018-04-18T06:28:33.594Z,5.03
2018-04-18T06:31:01.592Z,4.90
2018-04-18T06:33:39.223Z,4.95
2018-04-18T06:36:06.879Z,4.87
2018-04-18T06:38:34.429Z,5.00
2018-04-18T06:41:01.930Z,5.30
2018-04-18T06:43:29.737Z,5.03
2018-04-18T06:45:57.316Z,4.82
2018-04-18T06:48:24.841Z,5.03
2018-04-18T06:50:53.111Z,5.22
2018-04-18T06:53:20.603Z,5.20
2018-04-18T06:55:48.151Z,5.00
2018-04-18T06:58:16.473Z,5.00
2018-04-18T07:00:44.243Z,4.80
2018-04-18T07:03:12.518Z,5.13
2018-04-18T07:05:40.878Z,5.10
2018-04-18T07:08:18.630Z,5.18
2018-04-18T07:10:47.022Z,5.10
2018-04-18T07:13:15.479Z,5.00
2018-04-18T07:15:43.034Z,5.32
2018-04-18T07:18:12.396Z,5.00
2018-04-18T07:20:41.336Z,5.73
2018-04-18T07:23:08.950Z,5.60
2018-04-18T07:25:37.312Z,5.50
2018-04-18T07:28:04.834Z,5.20
2018-04-18T07:30:33.111Z,5.18
2018-04-18T07:33:01.454Z,5.20
2018-04-18T07:35:28.935Z,6.00
2018-04-18T07:37:56.444Z,6.55
2018-04-18T07:40:23.955Z,6.28
2018-04-18T07:42:51.467Z,6.20
2018-04-18T07:45:18.977Z,7.57
2018-04-18T07:47:46.560Z,7.37
2018-04-18T07:50:14.135Z,7.72
2018-04-18T07:52:41.734Z,7.93
2018-04-18T07:55:11.958Z,8.48
2018-04-18T07:57:39.629Z,7.75
2018-04-18T08:00:07.155Z,8.00
2018-04-18T08:02:34.652Z,7.73
2018-04-18T08:05:03.764Z,8.98
2018-04-18T08:07:31.394Z,8.25
2018-04-18T08:09:58.972Z,8.53
2018-04-18T08:12:27.217Z,7.93
2018-04-18T08:14:54.770Z,8.27
2018-04-18T08:17:22.266Z,7.75
2018-04-18T08:19:50.416Z,8.13
2018-04-18T08:22:17.928Z,8.20
2018-04-18T08:24:45.508Z,9.10
2018-04-18T08:27:13.062Z,8.30
2018-04-18T08:29:42.588Z,7.80
2018-04-18T08:32:11.518Z,9.20
2018-04-18T08:34:39.027Z,7.80
2018-04-18T08:37:06.734Z,7.28
2018-04-18T08:39:34.325Z,7.53
2018-04-18T08:42:03.362Z,7.15
2018-04-18T08:44:36.787Z,6.50
2018-04-18T08:47:04.315Z,7.80
2018-04-18T08:49:33.800Z,7.15
2018-04-18T08:52:02.091Z,7.62
2018-04-18T08:54:29.604Z,7.93
2018-04-18T08:56:59.278Z,8.00
2018-04-18T08:59:27.677Z,7.80
2018-04-18T09:01:56.839Z,7.37
2018-04-18T09:04:25.942Z,6.80
2018-04-18T09:06:54.219Z,6.62
2018-04-18T09:09:22.448Z,6.37
2018-04-18T09:11:50.090Z,6.80
2018-04-18T09:14:17.591Z,6.62
2018-04-18T09:16:45.205Z,6.60
2018-04-18T09:19:13.474Z,6.10
2018-04-18T09:21:41.729Z,6.20
2018-04-18T09:24:09.404Z,4.90
2018-04-18T09:26:37.739Z,5.75
2018-04-18T09:29:06.027Z,6.37
2018-04-18T09:31:34.284Z,5.53
2018-04-18T09:34:02.017Z,5.33
2018-04-18T09:36:29.595Z,4.87
2018-04-18T09:38:57.148Z,5.63
2018-04-18T09:41:25.405Z,5.65
2018-04-18T09:43:58.656Z,5.37
2018-04-18T09:46:27.002Z,4.85
2018-04-18T09:48:54.476Z,4.00
2018-04-18T09:51:22.791Z,4.05
2018-04-18T09:53:50.250Z,4.62
2018-04-18T09:56:18.532Z,4.10
2018-04-18T09:58:46.821Z,3.83
2018-04-18T10:01:20.020Z,3.97
2018-04-18T10:03:53.935Z,3.63
2018-04-18T10:06:22.307Z,3.33
2018-04-18T10:08:49.828Z,2.62
2018-04-18T10:11:17.818Z,2.97
2018-04-18T10:13:45.321Z,3.10
2018-04-18T10:16:13.088Z,3.10
2018-04-18T10:18:40.585Z,3.10
2018-04-18T10:21:15.912Z,3.20
2018-04-18T10:23:43.545Z,3.75
2018-04-18T10:26:11.215Z,3.67
2018-04-18T10:28:38.859Z,3.28
2018-04-18T10:31:06.524Z,3.43
2018-04-18T10:33:34.110Z,3.08
2018-04-18T10:36:03.601Z,3.50
2018-04-18T10:38:31.278Z,2.80
2018-04-18T10:40:58.765Z,2.80
2018-04-18T10:43:27.168Z,2.50
2018-04-18T10:45:54.628Z,1.90
2018-04-18T10:48:24.084Z,2.30
2018-04-18T10:50:52.500Z,2.77
2018-04-18T10:53:20.213Z,2.90
2018-04-18T10:55:47.924Z,3.30
2018-04-18T10:58:15.459Z,3.30
2018-04-18T11:00:43.003Z,2.75
2018-04-18T11:03:10.534Z,2.92
2018-04-18T11:05:43.969Z,3.33
2018-04-18T11:08:11.508Z,3.10
2018-04-18T11:10:39.219Z,3.00
2018-04-18T11:13:10.801Z,2.70
2018-04-18T11:15:38.391Z,3.00
2018-04-18T11:18:06.725Z,3.03
2018-04-18T11:20:35.038Z,3.17
2018-04-18T11:25:56.529Z,2.87
2018-04-18T11:28:24.784Z,3.20
2018-04-18T11:30:52.462Z,2.70
2018-04-18T11:33:19.978Z,2.67
2018-04-18T11:35:48.371Z,2.80
2018-04-18T11:38:16.654Z,2.70
2018-04-18T11:40:44.975Z,2.50
2018-04-18T11:43:12.511Z,2.40
2018-04-18T11:45:40.821Z,2.30
2018-04-18T11:48:08.333Z,2.50
2018-04-18T11:50:35.952Z,2.53
2018-04-18T11:53:03.451Z,2.67
2018-04-18T11:55:31.014Z,2.75
2018-04-18T11:57:59.454Z,2.70
2018-04-18T12:00:40.823Z,2.60
2018-04-18T12:03:08.477Z,2.67
2018-04-18T12:05:36.571Z,2.83
2018-04-18T12:08:04.213Z,2.90
2018-04-18T12:10:31.752Z,2.70
2018-04-18T12:12:59.274Z,2.60
2018-04-18T12:15:27.781Z,2.60
2018-04-18T12:17:55.348Z,2.67
2018-04-18T12:20:22.880Z,2.67
2018-04-18T12:22:51.156Z,3.07
2018-04-18T12:25:19.420Z,2.90
2018-04-18T12:27:47.006Z,2.60
2018-04-18T12:30:14.528Z,2.50
2018-04-18T12:32:42.078Z,2.67
2018-04-18T12:35:12.676Z,3.03
2018-04-18T12:37:40.235Z,2.90
2018-04-18T12:40:07.803Z,2.80
2018-04-18T12:42:35.440Z,2.70
2018-04-18T12:45:03.035Z,2.72
2018-04-18T12:47:30.559Z,3.10
2018-04-18T12:49:58.839Z,3.07
2018-04-18T12:52:26.436Z,2.87
2018-04-18T12:54:54.082Z,3.00
2018-04-18T12:57:21.560Z,2.90
2018-04-18T12:59:49.187Z,3.03
2018-04-18T13:02:16.710Z,3.12
2018-04-18T13:04:45.002Z,3.05
2018-04-18T13:07:13.288Z,3.12
2018-04-18T13:09:41.527Z,3.12
2018-04-18T13:12:09.032Z,2.78
2018-04-18T13:14:38.367Z,2.85
2018-04-18T13:17:06.842Z,2.83
2018-04-18T13:19:35.186Z,2.90
2018-04-18T13:22:02.709Z,3.10
2018-04-18T13:24:32.938Z,2.80
2018-04-18T13:27:01.240Z,2.60
2018-04-18T13:29:28.771Z,2.70
2018-04-18T13:31:56.249Z,2.87
2018-04-18T13:34:23.807Z,2.80
2018-04-18T13:36:51.348Z,2.85
2018-04-18T13:39:18.851Z,2.80
2018-04-18T13:41:46.424Z,2.70
2018-04-18T13:44:14.734Z,3.00
2018-04-18T13:46:43.104Z,2.45
2018-04-18T13:49:10.626Z,2.83
2018-04-18T13:51:39.107Z,2.60
2018-04-18T13:54:10.861Z,3.00
2018-04-18T13:56:39.136Z,2.72
2018-04-18T13:59:07.460Z,2.70
2018-04-18T14:01:34.941Z,2.62
2018-04-18T14:04:02.484Z,2.60
2018-04-18T14:06:30.704Z,2.30
2018-04-18T14:08:58.179Z,2.60
2018-04-18T14:11:25.818Z,2.62
2018-04-18T14:13:54.063Z,2.80
2018-04-18T14:16:21.526Z,2.50
2018-04-18T14:18:49.784Z,2.40
2018-04-18T14:24:14.603Z,2.10
2018-04-18T14:26:42.151Z,2.50
2018-04-18T14:29:09.824Z,2.40
2018-04-18T14:31:37.326Z,2.35
2018-04-18T14:34:04.896Z,2.33
2018-04-18T14:36:42.929Z,2.22
2018-04-18T14:39:10.507Z,2.30
2018-04-18T14:41:38.035Z,2.42
2018-04-18T14:44:12.481Z,2.35
2018-04-18T14:46:41.456Z,2.17
2018-04-18T14:49:12.679Z,2.15
2018-04-18T14:54:40.764Z,2.20
2018-04-18T14:57:11.264Z,2.10
2018-04-18T14:59:39.829Z,2.28
2018-04-18T15:02:07.409Z,2.40
2018-04-18T15:04:41.039Z,2.30
2018-04-18T15:07:14.875Z,2.12
2018-04-18T15:09:43.447Z,2.10
2018-04-18T15:12:11.193Z,2.20
2018-04-18T15:14:42.545Z,2.40
2018-04-18T15:17:11.304Z,2.10
2018-04-18T15:19:38.890Z,2.10
2018-04-18T15:22:07.204Z,2.05
2018-04-18T15:24:41.654Z,2.00
2018-04-18T15:27:14.609Z,1.80
2018-04-18T15:29:42.281Z,2.10
2018-04-18T15:32:18.728Z,1.90
2018-04-18T15:34:46.256Z,2.10
2018-04-18T15:37:13.766Z,2.10
2018-04-18T15:39:41.733Z,2.20
2018-04-18T15:42:09.421Z,1.90
2018-04-18T15:47:33.589Z,2.15
2018-04-18T15:50:11.096Z,2.50
2018-04-18T15:52:39.582Z,2.47
2018-04-18T15:55:13.605Z,2.12
2018-04-18T15:57:41.445Z,2.10
2018-04-18T16:00:11.046Z,2.60
2018-04-18T16:02:41.467Z,2.25
2018-04-18T16:05:11.371Z,2.10
2018-04-18T16:07:40.789Z,2.15
2018-04-18T16:10:12.651Z,2.22
2018-04-18T16:12:40.949Z,2.40
2018-04-18T16:15:09.248Z,1.98
2018-04-18T16:17:42.270Z,2.05
2018-04-18T16:20:12.787Z,2.60
2018-04-18T16:22:41.726Z,2.10
2018-04-18T16:25:09.225Z,2.00
2018-04-18T16:27:36.771Z,2.10
2018-04-18T16:30:27.226Z,2.15
2018-04-18T16:33:13.528Z,1.85
2018-04-18T16:35:44.691Z,2.60
2018-04-18T16:38:12.340Z,2.28
2018-04-18T16:40:41.134Z,2.50
2018-04-18T16:43:12.135Z,2.50
2018-04-18T16:45:44.055Z,2.08
2018-04-18T16:48:11.603Z,2.00
2018-04-18T16:50:42.458Z,2.00
2018-04-18T16:53:10.855Z,1.85
2018-04-18T16:58:42.374Z,1.77
2018-04-18T17:01:16.523Z,1.90
2018-04-18T17:08:39.891Z,1.83
2018-04-18T17:16:41.234Z,2.17
2018-04-18T17:19:08.801Z,1.77
2018-04-18T17:21:41.639Z,1.83
2018-04-18T17:24:13.436Z,2.03
2018-04-18T17:26:40.922Z,2.22
2018-04-18T17:29:10.981Z,2.40
2018-04-18T17:31:41.014Z,2.00
2018-04-18T17:34:11.254Z,2.10
2018-04-18T17:36:38.760Z,2.10
2018-04-18T17:39:11.509Z,2.00
2018-04-18T17:41:42.447Z,2.60
2018-04-18T17:44:10.964Z,2.60
2018-04-18T17:46:41.759Z,3.50
2018-04-18T17:49:15.252Z,3.20
2018-04-18T17:51:45.598Z,2.87
2018-04-18T17:54:15.928Z,3.47
2018-04-18T17:56:44.382Z,2.67
2018-04-18T17:59:12.282Z,2.47
2018-04-18T18:01:41.313Z,2.60
2018-04-18T18:04:11.435Z,3.00
2018-04-18T18:06:40.483Z,2.90
2018-04-18T18:09:12.966Z,2.83
2018-04-18T18:11:42.254Z,2.60
2018-04-18T18:14:11.406Z,2.40
2018-04-18T18:19:41.981Z,2.50
2018-04-18T18:22:13.293Z,2.30
2018-04-18T18:27:45.663Z,2.00
2018-04-18T22:48:43.874Z,4.10
2018-04-18T22:51:16.330Z,4.10
2018-04-18T22:53:45.102Z,3.90
2018-04-18T22:56:18.321Z,4.00
2018-04-18T22:58:51.536Z,3.65
2018-04-18T23:01:20.431Z,4.20
2018-04-18T23:03:52.948Z,4.75
2018-04-18T23:06:23.893Z,4.33
2018-04-18T23:08:55.620Z,4.30
2018-04-18T23:11:44.034Z,4.00
2018-04-18T23:14:16.397Z,4.10
2018-04-18T23:16:53.504Z,4.50
2018-04-18T23:19:23.609Z,4.10
2018-04-18T23:21:54.923Z,3.90
2018-04-18T23:24:25.171Z,4.20
2018-04-18T23:27:00.643Z,3.92
2018-04-18T23:29:32.967Z,4.03
2018-04-18T23:32:15.275Z,3.90
2018-04-18T23:34:42.869Z,4.25
2018-04-18T23:37:15.169Z,4.22
2018-04-18T23:39:51.720Z,3.80
2018-04-18T23:42:31.500Z,4.10
2018-04-18T23:45:13.624Z,3.90
2018-04-18T23:47:44.449Z,4.00
2018-04-18T23:50:15.315Z,4.22
2018-04-18T23:52:46.389Z,4.03
2018-04-18T23:55:15.563Z,4.18
2018-04-18T23:57:47.120Z,4.10
